Time;durP1;ratioP1;P1;durP2;ratioP2;P2;SDS_P1;SDS_P2;PMS_P1;PMS_P2;Temp;Humidity;BMP_temperature;BMP_pressure;BME280_temperature;BME280_humidity;BME280_pressure;Samples;Min_cycle;Max_cycle;Signal;HPM_P1;HPM_P2
2022/01/18 00:00:24;;;;;;;;;42.50;38.50;;;;;1.44;76.37;101998.09;5026551;28;45545;-73
2022/01/18 00:02:50;;;;;;;;;34.25;32.75;;;;;1.41;76.56;101990.09;5027091;28;45505;-77
2022/01/18 00:05:17;;;;;;;;;54.00;44.75;;;;;1.39;76.75;101983.16;5028264;28;45417;-73
2022/01/18 00:07:45;;;;;;;;;40.25;37.25;;;;;1.39;76.33;101971.91;5026468;28;45837;-76
2022/01/18 00:10:12;;;;;;;;;55.50;44.00;;;;;1.38;76.43;101963.31;5027053;28;45849;-75
2022/01/18 00:15:30;;;;;;;;;45.75;40.25;;;;;1.29;76.28;101954.75;5028003;28;45498;-73
2022/01/18 00:18:08;;;;;;;;;54.25;44.00;;;;;1.18;75.72;101950.31;5027909;28;45522;-73
2022/01/18 00:21:00;;;;;;;;;57.75;46.25;;;;;1.14;75.88;101948.25;5028207;28;45468;-72
2022/01/18 00:23:26;;;;;;;;;44.25;35.00;;;;;1.11;76.46;101954.00;5024920;28;45519;-72
2022/01/18 00:25:56;;;;;;;;;44.75;37.50;;;;;1.09;76.57;101947.81;5026582;28;45402;-73
2022/01/18 00:28:26;;;;;;;;;49.25;43.75;;;;;1.08;76.29;101948.59;5025722;28;45410;-77
2022/01/18 00:36:08;;;;;;;;;53.00;44.50;;;;;0.99;76.66;101945.16;5025706;28;45374;-73
2022/01/18 00:38:45;;;;;;;;;59.00;48.25;;;;;0.91;76.74;101948.72;5025931;28;45793;-73
2022/01/18 00:41:12;;;;;;;;;64.75;49.75;;;;;0.98;76.73;101969.09;5027613;28;45596;-78
2022/01/18 00:43:39;;;;;;;;;62.75;46.50;;;;;0.94;76.49;101967.91;5027252;28;46023;-72
2022/01/18 00:46:05;;;;;;;;;53.50;45.00;;;;;0.90;76.24;101965.81;5025641;28;45509;-72
2022/01/18 00:48:33;;;;;;;;;49.50;44.75;;;;;0.88;75.30;101964.78;5026263;28;45490;-71
2022/01/18 00:50:59;;;;;;;;;58.50;47.00;;;;;0.83;76.43;101963.44;5027772;28;45892;-77
2022/01/18 00:53:26;;;;;;;;;62.75;48.75;;;;;0.79;76.27;101962.25;5025586;28;46093;-72
2022/01/18 00:58:38;;;;;;;;;52.50;45.00;;;;;0.73;76.91;101971.09;5027183;28;45553;-78
2022/01/18 01:01:04;;;;;;;;;61.25;46.25;;;;;0.67;76.50;101961.13;5027426;28;45440;-72
2022/01/18 01:03:30;;;;;;;;;56.00;45.75;;;;;0.69;76.45;101979.28;5026157;28;46098;-73
2022/01/18 01:05:55;;;;;;;;;63.00;48.75;;;;;0.64;76.49;101963.44;5025354;28;45403;-72
2022/01/18 01:08:21;;;;;;;;;49.00;45.25;;;;;0.54;76.44;101961.69;5027178;28;45344;-73
2022/01/18 01:10:47;;;;;;;;;53.25;42.00;;;;;0.58;76.40;101973.16;5026001;28;45394;-73
2022/01/18 01:13:14;;;;;;;;;45.50;40.75;;;;;0.51;77.31;101957.91;5031189;28;45398;-72
2022/01/18 01:19:00;;;;;;;;;48.50;42.50;;;;;0.55;77.00;101963.47;5027144;28;45222;-72
2022/01/18 01:43:26;;;;;;;;;51.00;42.75;;;;;0.49;76.42;101968.06;5017850;28;45446;-73
2022/01/18 01:45:52;;;;;;;;;58.25;48.00;;;;;0.38;75.95;101971.31;5017153;28;45388;-73
2022/01/18 01:48:21;;;;;;;;;29.75;27.00;;;;;0.26;76.07;101972.69;5017906;28;45323;-72
2022/01/18 01:51:01;;;;;;;;;43.50;37.50;;;;;0.15;76.53;101964.88;5017397;28;45562;-73
2022/01/18 01:53:26;;;;;;;;;40.75;37.00;;;;;0.10;77.34;101961.00;5017283;28;45349;-73
2022/01/18 01:55:52;;;;;;;;;39.75;38.00;;;;;0.18;77.71;101965.19;5016989;28;45917;-76
2022/01/18 01:58:23;;;;;;;;;39.25;37.00;;;;;0.19;77.22;101971.22;5017360;28;45336;-73
2022/01/18 02:00:51;;;;;;;;;38.75;36.75;;;;;0.22;77.55;101966.41;5017357;28;45462;-74
2022/01/18 02:03:18;;;;;;;;;44.75;37.25;;;;;0.19;77.53;101945.53;5017417;28;45479;-72
2022/01/18 02:05:44;;;;;;;;;38.25;35.50;;;;;0.14;77.26;101942.53;5017029;28;45375;-75
2022/01/18 02:08:10;;;;;;;;;31.75;27.25;;;;;0.24;77.31;101951.09;5016970;28;45488;-73
2022/01/18 02:10:37;;;;;;;;;38.75;36.00;;;;;0.23;77.60;101945.06;5017150;28;45589;-73
2022/01/18 02:13:07;;;;;;;;;40.75;36.25;;;;;0.27;77.57;101949.72;5017321;28;45483;-77
2022/01/18 02:15:39;;;;;;;;;41.25;33.75;;;;;0.28;77.45;101945.47;5017077;28;46185;-74
2022/01/18 02:23:36;;;;;;;;;41.75;37.00;;;;;0.23;77.48;101942.50;5017220;28;45412;-73
2022/01/18 02:26:03;;;;;;;;;43.25;38.50;;;;;0.19;77.69;101946.44;5016476;28;45453;-73
2022/01/18 02:28:29;;;;;;;;;38.50;37.50;;;;;0.24;77.84;101952.03;5016671;28;45252;-73
2022/01/18 02:30:55;;;;;;;;;38.50;35.50;;;;;0.19;77.78;101940.41;5016995;28;45423;-73
2022/01/18 02:33:21;;;;;;;;;38.75;36.75;;;;;0.22;77.22;101950.03;5017353;28;45427;-73
2022/01/18 02:35:48;;;;;;;;;40.50;35.50;;;;;0.24;76.67;101963.94;5016548;28;45394;-78
2022/01/18 02:38:14;;;;;;;;;40.50;37.75;;;;;0.19;76.82;101951.56;5016745;28;45446;-73
2022/01/18 02:40:40;;;;;;;;;33.00;31.25;;;;;0.06;76.92;101937.41;5019862;28;45414;-72
2022/01/18 02:45:53;;;;;;;;;40.25;37.00;;;;;0.11;76.26;101942.25;5019958;28;45454;-73
2022/01/18 02:48:19;;;;;;;;;44.00;36.25;;;;;0.10;76.67;101944.66;5017816;28;45483;-74
2022/01/18 02:50:45;;;;;;;;;39.50;37.75;;;;;0.10;76.89;101945.59;5026229;28;45223;-72
2022/01/18 02:53:11;;;;;;;;;39.00;33.50;;;;;0.07;77.21;101929.88;5029672;28;45178;-73
2022/01/18 02:55:37;;;;;;;;;39.25;36.00;;;;;0.13;76.84;101934.69;5020225;28;46150;-77
2022/01/18 02:58:08;;;;;;;;;45.75;38.75;;;;;0.13;76.67;101934.69;5020326;28;45478;-73
2022/01/18 03:03:24;;;;;;;;;47.25;43.25;;;;;0.06;76.36;101922.94;5020502;28;45380;-76
2022/01/18 03:05:49;;;;;;;;;51.00;43.00;;;;;0.02;76.84;101914.78;5019475;28;46151;-73
2022/01/18 03:08:17;;;;;;;;;41.25;36.50;;;;;0.05;77.07;101921.09;5019837;28;45395;-77
2022/01/18 03:10:44;;;;;;;;;35.50;33.25;;;;;0.04;77.68;101914.19;5019863;28;45378;-74
2022/01/18 03:13:10;;;;;;;;;51.25;42.50;;;;;0.02;77.92;101910.56;5018844;28;45584;-73
2022/01/18 03:15:36;;;;;;;;;38.75;32.25;;;;;0.01;77.55;101911.31;5019430;28;46387;-73
2022/01/18 03:18:04;;;;;;;;;42.75;38.00;;;;;0.05;77.65;101913.41;5019390;28;45302;-72
2022/01/18 03:20:30;;;;;;;;;38.50;36.00;;;;;0.05;77.82;101921.09;5018322;28;45512;-73
2022/01/18 03:22:56;;;;;;;;;36.25;35.50;;;;;0.07;78.10;101913.56;5020290;28;45443;-72
2022/01/18 03:25:40;;;;;;;;;39.75;35.75;;;;;0.06;77.79;101915.22;5018307;28;47511;-73
2022/01/18 03:28:08;;;;;;;;;41.50;38.00;;;;;0.06;77.03;101917.78;5019358;28;45514;-74
2022/01/18 03:30:42;;;;;;;;;41.50;39.00;;;;;0.04;77.28;101916.75;5019618;28;45398;-73
2022/01/18 03:33:10;;;;;;;;;46.00;41.00;;;;;0.03;77.31;101917.50;5019755;28;45525;-73
2022/01/18 03:35:36;;;;;;;;;42.50;39.00;;;;;-0.02;77.51;101900.72;5019258;28;46098;-75
2022/01/18 03:38:02;;;;;;;;;40.75;33.00;;;;;-0.01;77.12;101910.25;5019262;28;45476;-78
2022/01/18 03:40:28;;;;;;;;;39.25;34.25;;;;;-0.08;77.46;101893.38;5019569;28;45292;-73
2022/01/18 03:42:55;;;;;;;;;46.00;38.50;;;;;-0.09;77.74;101898.38;5019857;28;45249;-73
2022/01/18 03:45:24;;;;;;;;;46.25;36.50;;;;;-0.04;77.51;101909.97;5019004;28;46097;-72
2022/01/18 03:47:50;;;;;;;;;40.00;34.50;;;;;-0.06;77.26;101906.34;5019206;28;45515;-74
2022/01/18 03:50:17;;;;;;;;;33.50;31.00;;;;;-0.08;77.18;101895.94;5019140;28;45674;-74
2022/01/18 03:52:43;;;;;;;;;36.00;31.00;;;;;-0.15;76.99;101900.34;5019236;28;45475;-77
2022/01/18 03:55:12;;;;;;;;;33.50;31.00;;;;;-0.18;77.40;101900.94;5018848;28;45253;-73
2022/01/18 03:57:38;;;;;;;;;34.25;32.50;;;;;-0.18;77.22;101911.22;5018966;28;45315;-73
2022/01/18 04:00:08;;;;;;;;;34.75;33.00;;;;;-0.19;77.15;101909.44;5018141;28;45458;-73
2022/01/18 04:02:34;;;;;;;;;44.00;35.50;;;;;-0.25;77.14;101906.28;5019129;28;45331;-77
2022/01/18 04:05:00;;;;;;;;;42.00;38.00;;;;;-0.25;77.24;101917.44;5018535;28;47770;-73
2022/01/18 04:07:26;;;;;;;;;38.00;32.00;;;;;-0.31;77.31;101911.72;5019213;28;45605;-77
2022/01/18 04:09:51;;;;;;;;;40.50;34.75;;;;;-0.44;77.64;101893.34;5017713;28;45705;-73
2022/01/18 04:12:17;;;;;;;;;34.50;31.25;;;;;-0.30;77.71;101917.75;5019040;28;45301;-73
2022/01/18 04:14:43;;;;;;;;;36.00;31.25;;;;;-0.34;77.37;101911.44;5018591;28;45514;-73
2022/01/18 04:17:31;;;;;;;;;32.75;29.50;;;;;-0.32;77.44;101912.50;5031198;28;45352;-71
2022/01/18 04:30:56;;;;;;;;;35.00;31.00;;;;;-0.41;76.02;101922.78;5027850;28;45290;-75
2022/01/18 04:33:21;;;;;;;;;35.75;30.25;;;;;-0.48;76.83;101914.34;5036849;28;45336;-76
2022/01/18 04:35:47;;;;;;;;;31.50;29.00;;;;;-0.46;77.31;101921.47;5044909;28;46011;-75
2022/01/18 04:38:13;;;;;;;;;39.25;35.00;;;;;-0.48;77.00;101925.53;5046823;28;45447;-77
2022/01/18 04:40:43;;;;;;;;;64.25;49.00;;;;;-0.45;76.58;101930.06;5046827;28;45412;-72
2022/01/18 04:43:23;;;;;;;;;43.00;36.75;;;;;-0.49;76.57;101928.84;5042309;28;45593;-71
2022/01/18 04:48:35;;;;;;;;;36.00;29.75;;;;;-0.61;75.39;101928.56;5043127;28;46452;-77
2022/01/18 04:51:09;;;;;;;;;38.25;28.50;;;;;-0.65;75.63;101935.84;5045895;28;45638;-73
2022/01/18 04:53:38;;;;;;;;;38.25;31.50;;;;;-0.73;75.94;101922.25;5044168;28;45264;-73
2022/01/18 04:56:09;;;;;;;;;34.25;29.75;;;;;-0.75;75.64;101922.88;5048062;28;46489;-75
2022/01/18 04:58:34;;;;;;;;;32.75;30.50;;;;;-0.81;75.77;101924.06;5057752;28;45481;-72
2022/01/18 05:01:02;;;;;;;;;34.00;31.25;;;;;-0.99;76.08;101901.75;5058099;28;45334;-79
2022/01/18 05:03:30;;;;;;;;;41.00;36.50;;;;;-0.86;76.61;101932.06;5058590;28;45410;-72
2022/01/18 05:05:59;;;;;;;;;41.50;38.00;;;;;-0.92;77.00;101934.94;5058219;28;46229;-72
2022/01/18 05:08:25;;;;;;;;;36.50;33.00;;;;;-0.93;76.48;101934.81;5058364;28;45383;-78
2022/01/18 05:10:54;;;;;;;;;35.25;32.75;;;;;-0.98;75.90;101933.44;5057749;28;45483;-73
2022/01/18 05:13:31;;;;;;;;;31.50;28.50;;;;;-1.08;75.80;101921.38;5058117;28;45552;-74
2022/01/18 05:16:20;;;;;;;;;35.25;34.25;;;;;-1.15;76.77;101924.06;5057871;28;46135;-72
2022/01/18 05:24:15;;;;;;;;;31.50;29.25;;;;;-1.06;77.80;101935.25;5058000;28;45528;-78
2022/01/18 05:26:41;;;;;;;;;44.50;38.25;;;;;-1.00;77.58;101926.47;5057429;28;46075;-73
2022/01/18 05:29:06;;;;;;;;;39.75;36.25;;;;;-0.83;76.79;101924.69;5057542;28;45368;-73
2022/01/18 05:31:32;;;;;;;;;38.25;30.75;;;;;-0.89;75.99;101883.03;5057529;28;45619;-72
2022/01/18 05:33:58;;;;;;;;;43.50;34.00;;;;;-0.49;75.25;101925.38;5057910;28;45365;-73
2022/01/18 05:36:24;;;;;;;;;40.00;34.50;;;;;-0.40;75.79;101915.97;5073101;28;46914;-73
2022/01/18 05:38:50;;;;;;;;;37.25;31.50;;;;;-0.29;76.03;101933.31;5057468;28;45244;-73
2022/01/18 05:41:16;;;;;;;;;44.50;33.25;;;;;-0.21;76.35;101926.34;5057553;28;45304;-73
2022/01/18 05:43:42;;;;;;;;;29.75;28.25;;;;;-0.14;76.37;101927.84;5057715;28;45218;-73
2022/01/18 05:46:07;;;;;;;;;39.00;36.25;;;;;-0.14;76.52;101905.66;5057078;28;45334;-72
2022/01/18 05:48:33;;;;;;;;;40.50;35.75;;;;;-0.01;76.10;101905.13;5057125;28;45394;-73
2022/01/18 05:51:01;;;;;;;;;64.75;51.00;;;;;0.15;76.53;101918.63;5056181;28;45486;-74
2022/01/18 05:53:30;;;;;;;;;50.50;42.00;;;;;0.19;76.28;101907.88;5057920;28;45335;-73
2022/01/18 05:55:57;;;;;;;;;42.00;39.50;;;;;0.34;75.63;101911.00;5056114;28;46709;-72
2022/01/18 05:58:22;;;;;;;;;52.25;43.00;;;;;0.44;75.97;101907.59;5055567;28;45814;-72
2022/01/18 06:00:52;;;;;;;;;39.75;35.00;;;;;0.52;76.17;101909.22;5057119;28;45390;-73
2022/01/18 06:03:27;;;;;;;;;48.25;40.50;;;;;0.61;76.46;101910.81;5056195;28;45414;-73
2022/01/18 06:08:40;;;;;;;;;46.00;39.50;;;;;0.63;73.44;101915.31;5069966;28;45461;-78
2022/01/18 06:11:05;;;;;;;;;44.25;38.75;;;;;0.60;74.05;101917.63;5057135;28;45439;-78
2022/01/18 06:13:31;;;;;;;;;45.25;40.00;;;;;0.59;74.29;101913.25;5057276;28;45597;-73
2022/01/18 06:15:56;;;;;;;;;57.00;43.75;;;;;0.56;74.60;101915.53;5056778;28;45502;-73
2022/01/18 06:18:22;;;;;;;;;48.25;43.00;;;;;0.55;74.60;101919.75;5055341;28;45545;-73
2022/01/18 06:20:48;;;;;;;;;41.50;36.75;;;;;0.53;74.45;101912.69;5056816;28;45390;-78
2022/01/18 06:23:14;;;;;;;;;49.00;39.75;;;;;0.39;74.85;101891.72;5058354;28;45477;-73
2022/01/18 06:25:40;;;;;;;;;40.50;38.50;;;;;0.51;74.68;101924.50;5059742;28;45420;-73
2022/01/18 06:28:05;;;;;;;;;50.75;40.00;;;;;0.08;74.94;101846.91;5060004;28;45487;-72
2022/01/18 06:30:31;;;;;;;;;45.75;37.25;;;;;0.53;75.41;101926.44;5060756;28;45318;-75
2022/01/18 06:32:57;;;;;;;;;42.75;38.00;;;;;0.54;75.08;101932.50;5060307;28;45696;-77
2022/01/18 06:35:22;;;;;;;;;50.75;45.50;;;;;0.48;75.60;101925.13;5060113;28;45534;-73
2022/01/18 06:37:48;;;;;;;;;44.50;41.50;;;;;0.55;75.47;101932.63;5059988;28;45466;-77
2022/01/18 06:40:14;;;;;;;;;53.25;40.25;;;;;0.52;75.68;101927.22;5060135;28;45422;-72
2022/01/18 06:42:40;;;;;;;;;44.25;37.75;;;;;0.47;75.91;101925.88;5060355;28;45257;-76
2022/01/18 06:45:07;;;;;;;;;70.75;51.75;;;;;0.39;75.96;101925.16;5059991;28;46241;-74
2022/01/18 06:47:33;;;;;;;;;52.25;45.25;;;;;0.37;76.00;101915.50;5060410;28;45241;-73
2022/01/18 06:49:58;;;;;;;;;47.75;42.00;;;;;0.47;76.20;101931.00;5053532;28;45349;-72
2022/01/18 06:52:24;;;;;;;;;49.50;42.25;;;;;0.58;76.39;101937.16;5041017;28;45391;-73
2022/01/18 06:54:50;;;;;;;;;57.50;45.75;;;;;0.49;76.41;101926.91;5038125;28;45879;-72
2022/01/18 06:57:15;;;;;;;;;39.75;37.50;;;;;0.63;76.35;101935.00;5037829;28;45666;-76
2022/01/18 06:59:41;;;;;;;;;55.00;45.00;;;;;0.67;76.54;101944.81;5042296;28;45400;-73
2022/01/18 07:02:07;;;;;;;;;50.25;41.25;;;;;0.65;76.48;101944.66;5046126;28;45474;-77
2022/01/18 07:04:32;;;;;;;;;48.75;38.25;;;;;0.68;76.03;101954.34;5039765;27;45391;-79
2022/01/18 07:06:58;;;;;;;;;37.00;34.50;;;;;0.64;75.45;101952.22;5038060;28;45525;-76
2022/01/18 07:09:24;;;;;;;;;41.00;36.75;;;;;0.61;75.88;101954.53;5037982;28;45388;-76
2022/01/18 07:11:56;;;;;;;;;45.00;37.75;;;;;0.53;76.47;101943.53;5038141;28;45430;-78
2022/01/18 07:14:23;;;;;;;;;32.50;31.00;;;;;0.62;77.03;101953.75;5042575;28;46548;-79
2022/01/18 07:16:49;;;;;;;;;33.25;30.00;;;;;0.53;77.16;101938.38;5054832;28;45497;-77
2022/01/18 07:19:15;;;;;;;;;32.75;28.00;;;;;0.70;77.01;101964.00;5039575;28;45244;-73
2022/01/18 07:21:41;;;;;;;;;46.00;40.25;;;;;0.73;76.60;101966.84;5039660;28;45248;-80
2022/01/18 07:24:17;;;;;;;;;41.25;36.25;;;;;0.75;76.62;101973.03;5038955;28;45339;-78
2022/01/18 07:26:44;;;;;;;;;39.00;34.25;;;;;0.67;76.87;101952.53;5039253;28;45228;-76
2022/01/18 07:29:09;;;;;;;;;37.75;33.00;;;;;0.72;76.94;101956.44;5039266;28;45374;-74
2022/01/18 07:31:35;;;;;;;;;44.50;35.50;;;;;0.80;76.95;101973.47;5039786;28;45555;-75
2022/01/18 07:34:01;;;;;;;;;36.00;29.50;;;;;0.76;77.29;101958.53;5037096;28;45901;-76
2022/01/18 07:36:26;;;;;;;;;32.50;31.50;;;;;0.87;77.04;101965.53;5036823;28;45588;-74
2022/01/18 07:38:52;;;;;;;;;40.25;31.75;;;;;0.93;76.66;101978.97;5000942;28;45533;-76
2022/01/18 07:41:18;;;;;;;;;46.50;42.00;;;;;0.96;76.05;101984.41;5058894;28;45508;-74
2022/01/18 07:43:44;;;;;;;;;42.75;37.50;;;;;0.97;76.49;101985.28;5056723;28;45414;-79
2022/01/18 07:46:09;;;;;;;;;36.50;31.50;;;;;0.93;76.21;101984.09;5056556;28;45474;-77
2022/01/18 07:48:35;;;;;;;;;37.75;29.00;;;;;0.87;75.59;101988.69;5057018;28;45525;-76
2022/01/18 07:51:00;;;;;;;;;35.75;32.00;;;;;0.81;75.38;101982.97;5056982;28;45492;-75
2022/01/18 07:53:26;;;;;;;;;40.00;32.50;;;;;0.72;74.66;101970.19;5056440;28;45458;-80
2022/01/18 07:55:52;;;;;;;;;35.25;34.50;;;;;0.72;75.00;101990.78;5057065;28;45441;-74
2022/01/18 07:58:18;;;;;;;;;51.75;42.25;;;;;0.76;75.99;101989.38;5057062;28;45634;-78
2022/01/18 08:00:45;;;;;;;;;53.50;44.50;;;;;0.87;76.00;101995.50;5057700;28;45479;-75
2022/01/18 08:03:11;;;;;;;;;54.25;47.75;;;;;1.03;75.77;101993.56;5056834;28;45706;-77
2022/01/18 08:05:37;;;;;;;;;50.00;43.00;;;;;1.19;75.19;101998.44;5056142;28;45595;-74
2022/01/18 08:08:05;;;;;;;;;45.50;38.25;;;;;1.33;74.79;102002.28;5056429;28;45341;-79
2022/01/18 08:10:31;;;;;;;;;46.25;40.25;;;;;1.41;74.94;102002.97;5056532;28;45513;-76
2022/01/18 08:13:01;;;;;;;;;40.00;36.75;;;;;1.42;74.24;101994.50;5054639;28;46156;-74
2022/01/18 08:15:36;;;;;;;;;40.25;36.25;;;;;1.50;73.62;102006.38;5053573;28;45438;-74
2022/01/18 08:18:03;;;;;;;;;36.25;32.50;;;;;1.53;73.74;102005.00;5056173;28;45581;-68
2022/01/18 08:20:28;;;;;;;;;43.25;40.25;;;;;1.55;73.30;102005.09;5055715;28;45382;-74
2022/01/18 08:22:54;;;;;;;;;50.00;42.00;;;;;1.58;73.24;102007.97;5055610;28;45360;-74
2022/01/18 08:25:19;;;;;;;;;43.25;34.00;;;;;1.53;73.42;101997.25;5055974;28;45398;-71
2022/01/18 08:27:45;;;;;;;;;44.50;38.75;;;;;1.53;73.09;101996.34;5058112;28;45376;-74
2022/01/18 08:30:13;;;;;;;;;37.50;32.25;;;;;1.66;73.39;102017.28;5059179;28;45396;-75
2022/01/18 08:32:39;;;;;;;;;38.25;32.75;;;;;1.69;72.81;102024.38;5057563;28;45575;-84
2022/01/18 08:35:06;;;;;;;;;31.25;29.50;;;;;1.57;73.31;101995.84;5055765;28;45508;-74
2022/01/18 08:37:31;;;;;;;;;33.25;29.00;;;;;1.77;73.04;102024.28;5057537;28;45460;-74
2022/01/18 08:39:57;;;;;;;;;36.00;31.75;;;;;1.81;73.29;102016.81;5057223;28;45437;-71
2022/01/18 08:42:23;;;;;;;;;39.00;33.00;;;;;1.90;73.30;102025.38;5056537;28;45995;-77
2022/01/18 08:44:49;;;;;;;;;37.25;33.50;;;;;1.99;72.69;102033.94;5056528;28;45395;-73
2022/01/18 08:47:16;;;;;;;;;36.25;31.75;;;;;1.92;72.13;102011.84;5056006;28;45580;-70
2022/01/18 08:49:42;;;;;;;;;41.75;37.75;;;;;2.12;72.08;102041.06;5054048;28;45435;-71
2022/01/18 08:52:08;;;;;;;;;53.75;44.25;;;;;2.25;72.35;102035.28;5055987;28;46238;-69
2022/01/18 08:54:34;;;;;;;;;38.75;34.25;;;;;2.32;71.55;102040.22;5056470;28;45802;-71
2022/01/18 08:57:00;;;;;;;;;35.00;29.75;;;;;2.44;71.18;102040.38;5056061;28;45772;-72
2022/01/18 08:59:26;;;;;;;;;40.75;34.50;;;;;2.50;70.92;102044.38;5056602;28;45438;-70
2022/01/18 09:01:52;;;;;;;;;56.25;43.75;;;;;2.54;70.82;102045.56;5056241;28;45371;-71
2022/01/18 09:04:19;;;;;;;;;62.00;45.25;;;;;2.50;70.67;102034.06;5056249;28;45393;-72
2022/01/18 09:06:48;;;;;;;;;41.75;37.50;;;;;2.56;70.05;102041.44;5056172;28;45593;-74
2022/01/18 09:09:16;;;;;;;;;63.00;49.75;;;;;2.59;70.51;102050.34;5056317;28;45469;-70
2022/01/18 09:11:49;;;;;;;;;51.25;43.75;;;;;2.56;70.51;102041.44;5054277;28;46347;-70
2022/01/18 09:14:15;;;;;;;;;82.75;62.25;;;;;2.49;70.27;102021.97;5057190;28;45413;-72
2022/01/18 09:16:42;;;;;;;;;67.50;53.25;;;;;2.71;69.75;102050.50;5057533;28;45434;-67
2022/01/18 09:19:08;;;;;;;;;45.50;41.50;;;;;2.72;69.93;102052.28;5057720;28;45245;-67
2022/01/18 09:21:34;;;;;;;;;46.50;37.50;;;;;2.82;69.74;102048.81;5057757;28;45943;-68
2022/01/18 09:24:03;;;;;;;;;41.75;39.50;;;;;2.94;69.51;102051.53;5056406;28;45545;-70
2022/01/18 09:26:28;;;;;;;;;52.00;44.25;;;;;3.01;69.24;102040.97;5056067;28;45862;-72
2022/01/18 09:28:54;;;;;;;;;63.00;50.25;;;;;3.15;68.82;102055.03;5056041;28;45421;-72
2022/01/18 09:31:20;;;;;;;;;63.25;50.00;;;;;3.27;68.93;102050.91;5055291;28;45481;-69
2022/01/18 09:33:45;;;;;;;;;59.00;47.25;;;;;3.47;68.85;102054.25;5055490;28;45650;-71
2022/01/18 09:36:11;;;;;;;;;62.00;48.25;;;;;3.56;68.46;102054.97;5055565;28;45975;-71
2022/01/18 09:38:37;;;;;;;;;57.00;44.75;;;;;3.74;68.39;102061.69;5055585;28;45485;-71
2022/01/18 09:41:10;;;;;;;;;51.50;38.75;;;;;3.85;67.24;102059.06;5055871;28;45407;-73
2022/01/18 09:43:38;;;;;;;;;48.50;42.00;;;;;3.99;67.63;102058.47;5053690;28;46059;-71
2022/01/18 09:46:05;;;;;;;;;61.25;50.25;;;;;4.24;66.68;102055.25;5053368;28;45611;-67
2022/01/18 09:48:31;;;;;;;;;46.25;41.50;;;;;4.46;66.38;102048.44;5056155;28;45406;-72
2022/01/18 09:50:59;;;;;;;;;66.00;50.25;;;;;4.82;65.46;102054.69;5055367;28;46229;-71
2022/01/18 09:53:25;;;;;;;;;56.75;45.25;;;;;5.15;64.40;102050.25;5055881;28;45569;-74
2022/01/18 09:55:53;;;;;;;;;103.67;86.33;;;;;5.40;63.92;102052.13;5056798;28;45648;-78
2022/01/18 09:58:20;;;;;;;;;96.33;79.67;;;;;5.56;63.50;102057.66;5055991;28;45644;-71
2022/01/18 10:00:46;;;;;;;;;78.25;61.50;;;;;5.48;63.79;102044.13;5056801;28;45334;-73
2022/01/18 10:03:33;;;;;;;;;77.75;60.50;;;;;5.46;63.95;102047.41;5056950;28;45390;-71
2022/01/18 10:06:01;;;;;;;;;62.50;51.00;;;;;5.46;64.60;102050.88;5057024;28;45363;-78
2022/01/18 10:08:27;;;;;;;;;63.50;51.00;;;;;5.48;63.99;102036.34;5057293;28;45814;-74
2022/01/18 10:10:56;;;;;;;;;61.75;48.00;;;;;5.84;63.69;102038.94;5056831;28;46176;-73
2022/01/18 10:13:26;;;;;;;;;58.00;47.75;;;;;6.24;63.33;102047.03;5057071;28;45520;-72
2022/01/18 10:15:59;;;;;;;;;66.50;52.50;;;;;6.50;62.73;102046.28;5056944;28;45447;-71
2022/01/18 10:18:48;;;;;;;;;59.00;45.00;;;;;6.59;62.29;102048.66;5056864;28;45417;-75
2022/01/18 10:21:31;;;;;;;;;65.00;50.50;;;;;6.63;62.21;102040.28;5056527;28;46950;-72
2022/01/18 10:24:25;;;;;;;;;83.75;62.00;;;;;6.74;62.28;102042.84;5056677;28;45437;-73
2022/01/18 10:26:53;;;;;;;;;69.50;54.50;;;;;7.02;61.90;102034.31;5053473;28;45374;-71
2022/01/18 10:29:25;;;;;;;;;87.00;66.33;;;;;7.28;61.25;102045.56;5056816;28;45450;-76
2022/01/18 10:37:12;;;;;;;;;65.75;52.25;;;;;8.51;59.16;102037.94;5056504;28;45474;-70
2022/01/18 10:39:59;;;;;;;;;52.50;42.25;;;;;8.85;58.48;102032.19;5056904;28;45490;-71
2022/01/18 10:42:32;;;;;;;;;57.00;45.75;;;;;9.12;57.42;102019.94;5056358;28;46403;-77
2022/01/18 10:45:05;;;;;;;;;35.50;35.00;;;;;9.74;56.13;102009.63;5056416;28;45425;-74
2022/01/18 10:47:32;;;;;;;;;57.75;44.75;;;;;10.24;55.70;102028.94;5056814;28;45418;-73
2022/01/18 10:50:10;;;;;;;;;45.00;38.00;;;;;11.19;53.58;102012.19;5056818;28;45427;-77
2022/01/18 10:52:36;;;;;;;;;44.25;37.00;;;;;11.96;51.55;101995.06;5056610;28;45417;-73
2022/01/18 10:55:03;;;;;;;;;51.00;41.25;;;;;13.00;49.29;102024.22;5056426;28;45492;-77
2022/01/18 10:57:36;;;;;;;;;50.75;41.75;;;;;13.62;48.22;102012.88;5056271;28;45485;-74
2022/01/18 11:00:12;;;;;;;;;56.50;46.00;;;;;14.04;46.39;102011.94;5056407;28;45461;-74
2022/01/18 11:02:41;;;;;;;;;44.25;39.00;;;;;14.38;45.88;102003.59;5056458;28;46074;-72
2022/01/18 11:05:19;;;;;;;;;45.50;37.75;;;;;14.82;45.21;102000.84;5056191;28;45390;-75
2022/01/18 11:07:47;;;;;;;;;52.00;42.75;;;;;14.91;44.22;101999.44;5055813;28;45770;-76
2022/01/18 11:10:15;;;;;;;;;52.75;42.75;;;;;15.14;43.51;101993.19;5058745;28;45469;-76
2022/01/18 11:13:05;;;;;;;;;51.00;38.75;;;;;15.49;43.71;101976.84;5059348;28;46053;-73
2022/01/18 11:15:35;;;;;;;;;52.25;43.50;;;;;16.01;43.28;101993.44;5058993;28;45991;-79
2022/01/18 11:18:03;;;;;;;;;48.50;36.75;;;;;15.99;42.47;101986.34;5059944;28;45504;-77
2022/01/18 11:20:32;;;;;;;;;45.75;35.75;;;;;15.07;42.18;101877.19;5060598;28;45477;-84
2022/01/18 11:22:58;;;;;;;;;45.50;36.00;;;;;15.06;42.26;101987.66;5061389;28;46483;-74
2022/01/18 11:25:25;;;;;;;;;41.25;35.25;;;;;14.25;43.87;101961.94;5059820;28;45329;-77
2022/01/18 11:27:53;;;;;;;;;49.50;41.25;;;;;13.87;45.49;101977.13;5061683;28;45376;-75
2022/01/18 11:30:24;;;;;;;;;46.00;37.00;;;;;13.39;46.32;101951.59;5074458;28;45585;-77
2022/01/18 11:32:52;;;;;;;;;47.00;38.50;;;;;13.06;47.20;101916.94;5057721;28;47278;-78
2022/01/18 11:35:24;;;;;;;;;60.50;48.25;;;;;13.29;47.65;101971.31;5059243;28;45464;-75
2022/01/18 11:38:04;;;;;;;;;40.25;34.25;;;;;13.12;48.30;101977.53;5059184;28;45585;-79
2022/01/18 11:40:50;;;;;;;;;46.50;39.00;;;;;12.88;48.91;101966.88;5059750;28;45572;-85
2022/01/18 11:43:40;;;;;;;;;50.50;41.50;;;;;13.01;48.36;101966.59;5058956;28;46451;-89
2022/01/18 11:46:23;;;;;;;;;47.25;37.25;;;;;13.12;48.96;101951.28;5059183;28;45521;-81
2022/01/18 11:48:58;;;;;;;;;48.50;38.25;;;;;13.40;47.65;101965.59;5059318;28;45322;-75
2022/01/18 11:51:52;;;;;;;;;52.50;39.25;;;;;13.45;48.20;101949.22;5059457;28;45381;-75
2022/01/18 11:54:31;;;;;;;;;50.00;37.75;;;;;13.17;47.14;101955.03;5059146;28;45461;-80
2022/01/18 11:56:58;;;;;;;;;48.00;39.50;;;;;12.72;48.71;101965.31;5055465;28;45576;-82
2022/01/18 11:59:39;;;;;;;;;47.50;39.00;;;;;12.03;49.40;101896.72;5057261;28;45552;-81
2022/01/18 12:02:06;;;;;;;;;44.50;38.00;;;;;12.10;50.33;101962.56;5056395;28;45554;-79
2022/01/18 12:04:40;;;;;;;;;50.75;39.75;;;;;11.80;51.16;101958.44;5054385;28;45975;-77
2022/01/18 12:07:06;;;;;;;;;53.75;42.00;;;;;11.55;51.60;101958.16;5057749;28;45422;-72
2022/01/18 12:09:40;;;;;;;;;59.50;46.00;;;;;11.36;52.18;101942.41;5058730;28;45359;-72
2022/01/18 12:12:26;;;;;;;;;49.50;40.25;;;;;11.42;52.36;101965.34;5059129;28;45492;-77
2022/01/18 12:14:52;;;;;;;;;51.50;41.25;;;;;11.31;52.70;101963.09;5058420;28;45561;-73
2022/01/18 12:17:17;;;;;;;;;46.25;36.75;;;;;11.27;52.91;101960.25;5058520;28;46027;-82
2022/01/18 12:19:45;;;;;;;;;46.75;35.75;;;;;11.11;53.38;101935.06;5058493;28;45438;-71
2022/01/18 12:22:11;;;;;;;;;47.25;36.75;;;;;11.14;53.33;101949.19;5058175;28;45552;-77
2022/01/18 12:24:40;;;;;;;;;49.75;40.75;;;;;10.80;54.44;101946.56;5058394;28;45228;-73
2022/01/18 12:27:31;;;;;;;;;43.25;36.25;;;;;10.57;54.92;101960.19;5057090;28;45441;-74
2022/01/18 12:30:26;;;;;;;;;50.25;40.50;;;;;10.28;55.43;101949.03;5055891;28;45437;-72
2022/01/18 12:33:17;;;;;;;;;49.25;37.50;;;;;10.28;55.41;101956.88;5057712;28;45394;-74
2022/01/18 12:35:43;;;;;;;;;48.50;39.50;;;;;10.25;56.00;101951.50;5058200;28;45642;-72